sensor_id;sensor_type;location;lat;lon;timestamp;P1;durP1;ratioP1;P2;durP2;ratioP2
595;SDS011;19946;49.306;11.350;2022-07-18T00:01:19;2.63;;;2.63;;
595;SDS011;19946;49.306;11.350;2022-07-18T00:04:19;2.40;;;2.40;;
595;SDS011;19946;49.306;11.350;2022-07-18T00:07:20;2.40;;;2.40;;
595;SDS011;19946;49.306;11.350;2022-07-18T00:10:20;2.60;;;2.60;;
595;SDS011;19946;49.306;11.350;2022-07-18T00:13:26;3.00;;;3.00;;
595;SDS011;19946;49.306;11.350;2022-07-18T00:16:26;3.10;;;3.10;;
595;SDS011;19946;49.306;11.350;2022-07-18T00:19:27;3.10;;;3.10;;
595;SDS011;19946;49.306;11.350;2022-07-18T00:22:28;3.20;;;3.20;;
595;SDS011;19946;49.306;11.350;2022-07-18T00:25:28;3.30;;;3.30;;
595;SDS011;19946;49.306;11.350;2022-07-18T00:28:44;3.20;;;3.20;;
595;SDS011;19946;49.306;11.350;2022-07-18T00:31:44;2.90;;;2.90;;
595;SDS011;19946;49.306;11.350;2022-07-18T00:34:45;3.00;;;3.00;;
595;SDS011;19946;49.306;11.350;2022-07-18T00:37:45;3.00;;;3.00;;
595;SDS011;19946;49.306;11.350;2022-07-18T00:40:45;3.10;;;3.10;;
595;SDS011;19946;49.306;11.350;2022-07-18T00:43:48;2.90;;;2.90;;
595;SDS011;19946;49.306;11.350;2022-07-18T00:46:51;3.00;;;3.00;;
595;SDS011;19946;49.306;11.350;2022-07-18T00:50:01;3.00;;;3.00;;
595;SDS011;19946;49.306;11.350;2022-07-18T00:53:03;3.00;;;3.00;;
595;SDS011;19946;49.306;11.350;2022-07-18T00:56:05;3.10;;;3.10;;
595;SDS011;19946;49.306;11.350;2022-07-18T00:59:12;3.10;;;3.10;;
595;SDS011;19946;49.306;11.350;2022-07-18T01:02:13;2.90;;;2.90;;
595;SDS011;19946;49.306;11.350;2022-07-18T01:05:13;3.03;;;3.03;;
595;SDS011;19946;49.306;11.350;2022-07-18T01:08:13;3.00;;;3.00;;
595;SDS011;19946;49.306;11.350;2022-07-18T01:11:16;2.90;;;2.90;;
595;SDS011;19946;49.306;11.350;2022-07-18T01:14:16;3.00;;;3.00;;
595;SDS011;19946;49.306;11.350;2022-07-18T01:17:18;3.20;;;3.20;;
595;SDS011;19946;49.306;11.350;2022-07-18T01:20:19;2.90;;;2.90;;
595;SDS011;19946;49.306;11.350;2022-07-18T01:23:26;3.03;;;3.03;;
595;SDS011;19946;49.306;11.350;2022-07-18T01:26:27;2.90;;;2.90;;
595;SDS011;19946;49.306;11.350;2022-07-18T01:29:27;3.00;;;3.00;;
595;SDS011;19946;49.306;11.350;2022-07-18T01:32:28;3.00;;;3.00;;
595;SDS011;19946;49.306;11.350;2022-07-18T01:35:28;2.60;;;2.60;;
595;SDS011;19946;49.306;11.350;2022-07-18T01:42:07;2.40;;;2.40;;
595;SDS011;19946;49.306;11.350;2022-07-18T01:45:08;2.60;;;2.60;;
595;SDS011;19946;49.306;11.350;2022-07-18T01:48:09;2.53;;;2.53;;
595;SDS011;19946;49.306;11.350;2022-07-18T01:51:09;2.40;;;2.40;;
595;SDS011;19946;49.306;11.350;2022-07-18T01:54:12;2.50;;;2.50;;
595;SDS011;19946;49.306;11.350;2022-07-18T01:57:13;2.43;;;2.43;;
595;SDS011;19946;49.306;11.350;2022-07-18T02:03:17;2.57;;;2.57;;
595;SDS011;19946;49.306;11.350;2022-07-18T02:06:17;2.40;;;2.40;;
595;SDS011;19946;49.306;11.350;2022-07-18T02:12:38;2.40;;;2.40;;
595;SDS011;19946;49.306;11.350;2022-07-18T02:15:39;2.40;;;2.40;;
595;SDS011;19946;49.306;11.350;2022-07-18T02:18:39;2.50;;;2.50;;
595;SDS011;19946;49.306;11.350;2022-07-18T02:21:41;2.30;;;2.30;;
595;SDS011;19946;49.306;11.350;2022-07-18T02:24:42;2.40;;;2.40;;
595;SDS011;19946;49.306;11.350;2022-07-18T02:27:42;2.20;;;2.20;;
595;SDS011;19946;49.306;11.350;2022-07-18T02:30:43;2.50;;;2.50;;
595;SDS011;19946;49.306;11.350;2022-07-18T02:33:43;2.30;;;2.30;;
595;SDS011;19946;49.306;11.350;2022-07-18T02:36:43;2.40;;;2.40;;
595;SDS011;19946;49.306;11.350;2022-07-18T02:39:45;2.60;;;2.60;;
595;SDS011;19946;49.306;11.350;2022-07-18T02:42:45;2.53;;;2.53;;
595;SDS011;19946;49.306;11.350;2022-07-18T02:45:45;2.30;;;2.30;;
595;SDS011;19946;49.306;11.350;2022-07-18T02:48:46;2.40;;;2.40;;
595;SDS011;19946;49.306;11.350;2022-07-18T02:51:47;2.33;;;2.33;;
595;SDS011;19946;49.306;11.350;2022-07-18T02:54:47;2.40;;;2.40;;
595;SDS011;19946;49.306;11.350;2022-07-18T02:57:48;2.30;;;2.30;;
595;SDS011;19946;49.306;11.350;2022-07-18T03:00:48;2.40;;;2.40;;
595;SDS011;19946;49.306;11.350;2022-07-18T03:03:49;2.50;;;2.50;;
595;SDS011;19946;49.306;11.350;2022-07-18T03:06:51;2.50;;;2.50;;
595;SDS011;19946;49.306;11.350;2022-07-18T03:09:58;3.10;;;3.10;;
595;SDS011;19946;49.306;11.350;2022-07-18T03:12:58;3.13;;;3.13;;
595;SDS011;19946;49.306;11.350;2022-07-18T03:15:59;3.20;;;3.20;;
595;SDS011;19946;49.306;11.350;2022-07-18T03:18:59;3.00;;;3.00;;
595;SDS011;19946;49.306;11.350;2022-07-18T03:22:00;3.00;;;3.00;;
595;SDS011;19946;49.306;11.350;2022-07-18T03:25:00;2.90;;;2.90;;
595;SDS011;19946;49.306;11.350;2022-07-18T03:28:00;3.20;;;3.20;;
595;SDS011;19946;49.306;11.350;2022-07-18T03:31:01;3.30;;;3.30;;
595;SDS011;19946;49.306;11.350;2022-07-18T03:34:02;3.50;;;3.50;;
595;SDS011;19946;49.306;11.350;2022-07-18T03:37:04;3.00;;;3.00;;
595;SDS011;19946;49.306;11.350;2022-07-18T03:40:05;2.90;;;2.90;;
595;SDS011;19946;49.306;11.350;2022-07-18T03:43:06;2.90;;;2.90;;
595;SDS011;19946;49.306;11.350;2022-07-18T03:46:07;3.30;;;3.30;;
595;SDS011;19946;49.306;11.350;2022-07-18T03:49:07;3.10;;;3.10;;
595;SDS011;19946;49.306;11.350;2022-07-18T03:52:08;3.20;;;3.20;;
595;SDS011;19946;49.306;11.350;2022-07-18T03:55:08;3.00;;;3.00;;
595;SDS011;19946;49.306;11.350;2022-07-18T03:58:17;3.03;;;3.03;;
595;SDS011;19946;49.306;11.350;2022-07-18T04:01:17;2.80;;;2.80;;
595;SDS011;19946;49.306;11.350;2022-07-18T04:04:17;3.00;;;3.00;;
595;SDS011;19946;49.306;11.350;2022-07-18T04:07:18;2.80;;;2.80;;
595;SDS011;19946;49.306;11.350;2022-07-18T04:10:18;3.00;;;3.00;;
595;SDS011;19946;49.306;11.350;2022-07-18T04:13:29;3.10;;;3.10;;
595;SDS011;19946;49.306;11.350;2022-07-18T04:16:38;3.10;;;3.10;;
595;SDS011;19946;49.306;11.350;2022-07-18T04:19:38;3.10;;;3.10;;
595;SDS011;19946;49.306;11.350;2022-07-18T04:25:53;2.90;;;2.90;;
595;SDS011;19946;49.306;11.350;2022-07-18T04:28:53;3.30;;;3.30;;
595;SDS011;19946;49.306;11.350;2022-07-18T04:31:53;3.40;;;3.40;;
595;SDS011;19946;49.306;11.350;2022-07-18T04:34:54;3.60;;;3.60;;
595;SDS011;19946;49.306;11.350;2022-07-18T04:37:54;3.93;;;3.93;;
595;SDS011;19946;49.306;11.350;2022-07-18T04:40:54;3.90;;;3.90;;
595;SDS011;19946;49.306;11.350;2022-07-18T04:43:55;4.10;;;4.10;;
595;SDS011;19946;49.306;11.350;2022-07-18T04:46:55;4.13;;;4.13;;
595;SDS011;19946;49.306;11.350;2022-07-18T04:50:05;4.00;;;4.00;;
595;SDS011;19946;49.306;11.350;2022-07-18T04:53:06;4.10;;;4.10;;
595;SDS011;19946;49.306;11.350;2022-07-18T04:56:07;3.80;;;3.80;;
595;SDS011;19946;49.306;11.350;2022-07-18T04:59:07;3.90;;;3.90;;
595;SDS011;19946;49.306;11.350;2022-07-18T05:02:08;4.00;;;4.00;;
595;SDS011;19946;49.306;11.350;2022-07-18T05:05:10;3.90;;;3.90;;
595;SDS011;19946;49.306;11.350;2022-07-18T05:08:11;3.90;;;3.90;;
595;SDS011;19946;49.306;11.350;2022-07-18T05:11:12;4.20;;;4.20;;
595;SDS011;19946;49.306;11.350;2022-07-18T05:14:12;4.90;;;4.90;;
595;SDS011;19946;49.306;11.350;2022-07-18T05:17:12;4.20;;;4.20;;
595;SDS011;19946;49.306;11.350;2022-07-18T05:20:15;4.40;;;4.40;;
595;SDS011;19946;49.306;11.350;2022-07-18T05:23:17;4.07;;;4.07;;
595;SDS011;19946;49.306;11.350;2022-07-18T05:26:17;4.10;;;4.10;;
595;SDS011;19946;49.306;11.350;2022-07-18T05:29:18;4.20;;;4.20;;
595;SDS011;19946;49.306;11.350;2022-07-18T05:32:18;4.17;;;4.17;;
595;SDS011;19946;49.306;11.350;2022-07-18T05:35:18;4.00;;;4.00;;
595;SDS011;19946;49.306;11.350;2022-07-18T05:38:19;4.00;;;4.00;;
595;SDS011;19946;49.306;11.350;2022-07-18T05:41:19;3.93;;;3.93;;
595;SDS011;19946;49.306;11.350;2022-07-18T05:44:20;4.10;;;4.10;;
595;SDS011;19946;49.306;11.350;2022-07-18T05:47:20;3.90;;;3.90;;
595;SDS011;19946;49.306;11.350;2022-07-18T05:50:21;4.37;;;4.37;;
595;SDS011;19946;49.306;11.350;2022-07-18T05:53:23;3.80;;;3.80;;
595;SDS011;19946;49.306;11.350;2022-07-18T05:56:23;4.23;;;4.20;;
595;SDS011;19946;49.306;11.350;2022-07-18T05:59:23;4.27;;;4.20;;
595;SDS011;19946;49.306;11.350;2022-07-18T06:02:24;4.10;;;4.10;;
595;SDS011;19946;49.306;11.350;2022-07-18T06:05:24;3.90;;;3.90;;
595;SDS011;19946;49.306;11.350;2022-07-18T06:08:24;4.00;;;4.00;;
595;SDS011;19946;49.306;11.350;2022-07-18T06:11:25;4.00;;;4.00;;
595;SDS011;19946;49.306;11.350;2022-07-18T06:14:26;4.37;;;4.30;;
595;SDS011;19946;49.306;11.350;2022-07-18T06:17:27;3.90;;;3.90;;
595;SDS011;19946;49.306;11.350;2022-07-18T06:20:29;3.80;;;3.80;;
595;SDS011;19946;49.306;11.350;2022-07-18T06:23:29;4.10;;;4.00;;
595;SDS011;19946;49.306;11.350;2022-07-18T06:26:30;3.70;;;3.70;;
595;SDS011;19946;49.306;11.350;2022-07-18T06:29:30;3.83;;;3.73;;
595;SDS011;19946;49.306;11.350;2022-07-18T06:32:30;3.30;;;3.30;;
595;SDS011;19946;49.306;11.350;2022-07-18T06:35:31;3.50;;;3.50;;
595;SDS011;19946;49.306;11.350;2022-07-18T06:38:32;3.47;;;3.37;;
595;SDS011;19946;49.306;11.350;2022-07-18T06:41:32;3.40;;;3.40;;
595;SDS011;19946;49.306;11.350;2022-07-18T06:44:32;3.43;;;3.43;;
595;SDS011;19946;49.306;11.350;2022-07-18T06:47:34;3.40;;;3.40;;
595;SDS011;19946;49.306;11.350;2022-07-18T06:50:34;3.77;;;3.67;;
595;SDS011;19946;49.306;11.350;2022-07-18T06:53:35;3.73;;;3.73;;
595;SDS011;19946;49.306;11.350;2022-07-18T06:56:35;3.60;;;3.60;;
595;SDS011;19946;49.306;11.350;2022-07-18T06:59:35;3.40;;;3.40;;
595;SDS011;19946;49.306;11.350;2022-07-18T07:02:40;3.60;;;3.60;;
595;SDS011;19946;49.306;11.350;2022-07-18T07:05:44;3.40;;;3.40;;
595;SDS011;19946;49.306;11.350;2022-07-18T07:08:45;3.30;;;3.30;;
595;SDS011;19946;49.306;11.350;2022-07-18T07:11:45;3.10;;;3.10;;
595;SDS011;19946;49.306;11.350;2022-07-18T07:14:45;3.00;;;3.00;;
595;SDS011;19946;49.306;11.350;2022-07-18T07:17:47;3.10;;;3.10;;
595;SDS011;19946;49.306;11.350;2022-07-18T07:20:48;2.90;;;2.90;;
595;SDS011;19946;49.306;11.350;2022-07-18T07:23:48;3.30;;;3.30;;
595;SDS011;19946;49.306;11.350;2022-07-18T07:26:49;3.00;;;3.00;;
595;SDS011;19946;49.306;11.350;2022-07-18T07:29:49;3.90;;;3.70;;
595;SDS011;19946;49.306;11.350;2022-07-18T07:32:50;3.40;;;3.40;;
595;SDS011;19946;49.306;11.350;2022-07-18T07:35:51;3.50;;;3.50;;
595;SDS011;19946;49.306;11.350;2022-07-18T07:38:52;3.20;;;3.20;;
595;SDS011;19946;49.306;11.350;2022-07-18T07:41:53;3.10;;;3.10;;
595;SDS011;19946;49.306;11.350;2022-07-18T07:44:53;3.20;;;3.20;;
595;SDS011;19946;49.306;11.350;2022-07-18T07:47:53;3.20;;;3.20;;
595;SDS011;19946;49.306;11.350;2022-07-18T07:50:54;3.57;;;3.47;;
595;SDS011;19946;49.306;11.350;2022-07-18T07:53:54;3.70;;;3.70;;
595;SDS011;19946;49.306;11.350;2022-07-18T07:56:54;3.53;;;3.47;;
595;SDS011;19946;49.306;11.350;2022-07-18T07:59:55;3.73;;;3.63;;
595;SDS011;19946;49.306;11.350;2022-07-18T08:03:05;3.73;;;3.63;;
595;SDS011;19946;49.306;11.350;2022-07-18T08:06:06;3.70;;;3.60;;
595;SDS011;19946;49.306;11.350;2022-07-18T08:09:07;3.40;;;3.40;;
595;SDS011;19946;49.306;11.350;2022-07-18T08:12:08;3.77;;;3.60;;
595;SDS011;19946;49.306;11.350;2022-07-18T08:15:08;3.30;;;3.20;;
595;SDS011;19946;49.306;11.350;2022-07-18T08:18:09;3.40;;;3.40;;
595;SDS011;19946;49.306;11.350;2022-07-18T08:21:10;3.60;;;3.60;;
595;SDS011;19946;49.306;11.350;2022-07-18T08:24:10;3.90;;;3.90;;
595;SDS011;19946;49.306;11.350;2022-07-18T08:27:11;3.60;;;3.50;;
595;SDS011;19946;49.306;11.350;2022-07-18T08:30:11;4.33;;;4.13;;
595;SDS011;19946;49.306;11.350;2022-07-18T08:33:12;3.93;;;3.80;;
595;SDS011;19946;49.306;11.350;2022-07-18T08:36:12;3.37;;;3.37;;
595;SDS011;19946;49.306;11.350;2022-07-18T08:39:12;3.90;;;3.80;;
595;SDS011;19946;49.306;11.350;2022-07-18T08:42:13;8.13;;;4.33;;
595;SDS011;19946;49.306;11.350;2022-07-18T08:45:14;3.87;;;3.67;;
595;SDS011;19946;49.306;11.350;2022-07-18T08:48:15;5.23;;;3.80;;
595;SDS011;19946;49.306;11.350;2022-07-18T08:51:17;3.63;;;3.50;;
595;SDS011;19946;49.306;11.350;2022-07-18T08:54:18;3.93;;;3.60;;
595;SDS011;19946;49.306;11.350;2022-07-18T08:57:18;4.20;;;3.90;;
595;SDS011;19946;49.306;11.350;2022-07-18T09:00:18;8.47;;;4.40;;
595;SDS011;19946;49.306;11.350;2022-07-18T09:03:20;5.10;;;3.73;;
595;SDS011;19946;49.306;11.350;2022-07-18T09:06:21;6.23;;;5.93;;
595;SDS011;19946;49.306;11.350;2022-07-18T09:09:21;3.63;;;3.53;;
595;SDS011;19946;49.306;11.350;2022-07-18T09:12:21;8.20;;;4.37;;
595;SDS011;19946;49.306;11.350;2022-07-18T09:15:22;3.20;;;3.10;;
595;SDS011;19946;49.306;11.350;2022-07-18T09:18:26;4.03;;;3.90;;
595;SDS011;19946;49.306;11.350;2022-07-18T09:21:46;3.70;;;3.50;;
595;SDS011;19946;49.306;11.350;2022-07-18T09:24:51;2.90;;;2.90;;
595;SDS011;19946;49.306;11.350;2022-07-18T09:27:56;3.93;;;3.60;;
595;SDS011;19946;49.306;11.350;2022-07-18T09:30:57;2.90;;;2.90;;
595;SDS011;19946;49.306;11.350;2022-07-18T09:33:59;3.47;;;3.37;;
595;SDS011;19946;49.306;11.350;2022-07-18T09:37:00;3.67;;;3.33;;
595;SDS011;19946;49.306;11.350;2022-07-18T09:40:14;3.60;;;3.20;;
595;SDS011;19946;49.306;11.350;2022-07-18T09:43:25;2.67;;;2.67;;
595;SDS011;19946;49.306;11.350;2022-07-18T09:46:27;4.53;;;3.30;;
595;SDS011;19946;49.306;11.350;2022-07-18T09:49:28;2.60;;;2.60;;
595;SDS011;19946;49.306;11.350;2022-07-18T09:52:32;4.47;;;3.30;;
595;SDS011;19946;49.306;11.350;2022-07-18T09:55:33;3.23;;;2.93;;
595;SDS011;19946;49.306;11.350;2022-07-18T09:58:35;3.63;;;3.40;;
595;SDS011;19946;49.306;11.350;2022-07-18T10:01:38;4.23;;;3.63;;
595;SDS011;19946;49.306;11.350;2022-07-18T10:04:39;3.20;;;3.10;;
595;SDS011;19946;49.306;11.350;2022-07-18T10:07:40;4.80;;;3.50;;
595;SDS011;19946;49.306;11.350;2022-07-18T10:10:41;4.43;;;3.47;;
595;SDS011;19946;49.306;11.350;2022-07-18T10:13:43;3.23;;;3.03;;
595;SDS011;19946;49.306;11.350;2022-07-18T10:16:43;3.33;;;3.13;;
595;SDS011;19946;49.306;11.350;2022-07-18T10:19:44;3.37;;;3.37;;
595;SDS011;19946;49.306;11.350;2022-07-18T10:22:45;2.80;;;2.73;;
595;SDS011;19946;49.306;11.350;2022-07-18T10:29:23;3.00;;;2.90;;
595;SDS011;19946;49.306;11.350;2022-07-18T10:32:31;2.63;;;2.63;;
595;SDS011;19946;49.306;11.350;2022-07-18T10:39:20;3.07;;;3.00;;
595;SDS011;19946;49.306;11.350;2022-07-18T10:42:32;4.30;;;3.40;;
595;SDS011;19946;49.306;11.350;2022-07-18T10:45:42;5.97;;;5.63;;
595;SDS011;19946;49.306;11.350;2022-07-18T10:48:47;4.40;;;4.00;;
595;SDS011;19946;49.306;11.350;2022-07-18T10:51:49;4.13;;;3.60;;
595;SDS011;19946;49.306;11.350;2022-07-18T11:01:10;2.90;;;2.80;;
595;SDS011;19946;49.306;11.350;2022-07-18T11:07:32;6.70;;;3.73;;
595;SDS011;19946;49.306;11.350;2022-07-18T11:13:43;3.67;;;3.47;;
595;SDS011;19946;49.306;11.350;2022-07-18T11:17:04;3.90;;;3.80;;
595;SDS011;19946;49.306;11.350;2022-07-18T11:20:24;10.60;;;4.90;;
595;SDS011;19946;49.306;11.350;2022-07-18T11:23:51;4.47;;;3.47;;
595;SDS011;19946;49.306;11.350;2022-07-18T11:27:12;2.90;;;2.90;;
595;SDS011;19946;49.306;11.350;2022-07-18T11:30:16;3.30;;;3.10;;
595;SDS011;19946;49.306;11.350;2022-07-18T11:33:22;3.40;;;3.20;;
595;SDS011;19946;49.306;11.350;2022-07-18T11:36:28;3.17;;;3.00;;
595;SDS011;19946;49.306;11.350;2022-07-18T11:39:31;2.60;;;2.60;;
595;SDS011;19946;49.306;11.350;2022-07-18T11:42:36;3.50;;;3.20;;
595;SDS011;19946;49.306;11.350;2022-07-18T11:45:37;3.13;;;2.93;;
595;SDS011;19946;49.306;11.350;2022-07-18T11:48:38;2.70;;;2.70;;
595;SDS011;19946;49.306;11.350;2022-07-18T11:51:41;3.27;;;2.97;;
595;SDS011;19946;49.306;11.350;2022-07-18T11:54:43;2.87;;;2.77;;
595;SDS011;19946;49.306;11.350;2022-07-18T11:57:44;5.00;;;3.53;;
595;SDS011;19946;49.306;11.350;2022-07-18T12:00:45;4.53;;;3.33;;
595;SDS011;19946;49.306;11.350;2022-07-18T12:03:47;2.83;;;2.73;;
595;SDS011;19946;49.306;11.350;2022-07-18T12:10:19;2.50;;;2.40;;
595;SDS011;19946;49.306;11.350;2022-07-18T12:13:20;3.10;;;2.80;;
595;SDS011;19946;49.306;11.350;2022-07-18T12:16:28;2.60;;;2.50;;
595;SDS011;19946;49.306;11.350;2022-07-18T12:19:32;2.83;;;2.57;;
595;SDS011;19946;49.306;11.350;2022-07-18T12:22:34;2.57;;;2.47;;
595;SDS011;19946;49.306;11.350;2022-07-18T12:29:05;2.20;;;2.20;;
595;SDS011;19946;49.306;11.350;2022-07-18T12:32:15;2.47;;;2.40;;
595;SDS011;19946;49.306;11.350;2022-07-18T12:38:24;4.60;;;2.70;;
595;SDS011;19946;49.306;11.350;2022-07-18T12:41:28;2.47;;;2.47;;
595;SDS011;19946;49.306;11.350;2022-07-18T12:44:29;2.70;;;2.50;;
595;SDS011;19946;49.306;11.350;2022-07-18T12:47:31;2.20;;;2.20;;
595;SDS011;19946;49.306;11.350;2022-07-18T12:50:32;2.20;;;2.20;;
595;SDS011;19946;49.306;11.350;2022-07-18T12:53:34;2.10;;;2.10;;
595;SDS011;19946;49.306;11.350;2022-07-18T12:56:37;2.63;;;2.47;;
595;SDS011;19946;49.306;11.350;2022-07-18T12:59:38;3.13;;;2.73;;
595;SDS011;19946;49.306;11.350;2022-07-18T13:06:13;23.63;;;5.70;;
595;SDS011;19946;49.306;11.350;2022-07-18T13:09:16;23.93;;;5.70;;
595;SDS011;19946;49.306;11.350;2022-07-18T13:12:16;11.77;;;4.07;;
595;SDS011;19946;49.306;11.350;2022-07-18T13:15:17;30.27;;;6.23;;
595;SDS011;19946;49.306;11.350;2022-07-18T13:18:20;18.50;;;4.60;;
595;SDS011;19946;49.306;11.350;2022-07-18T13:21:20;21.17;;;5.23;;
595;SDS011;19946;49.306;11.350;2022-07-18T13:24:22;24.93;;;5.83;;
595;SDS011;19946;49.306;11.350;2022-07-18T13:27:22;8.53;;;3.47;;
595;SDS011;19946;49.306;11.350;2022-07-18T13:30:23;24.37;;;6.17;;
595;SDS011;19946;49.306;11.350;2022-07-18T13:33:23;17.63;;;4.57;;
595;SDS011;19946;49.306;11.350;2022-07-18T13:36:24;13.63;;;4.43;;
595;SDS011;19946;49.306;11.350;2022-07-18T13:39:24;15.63;;;4.60;;
595;SDS011;19946;49.306;11.350;2022-07-18T13:42:24;10.03;;;4.00;;
595;SDS011;19946;49.306;11.350;2022-07-18T13:45:25;20.17;;;4.73;;
595;SDS011;19946;49.306;11.350;2022-07-18T13:48:25;18.43;;;5.20;;
595;SDS011;19946;49.306;11.350;2022-07-18T13:51:26;22.30;;;5.13;;
595;SDS011;19946;49.306;11.350;2022-07-18T13:54:26;16.90;;;4.53;;
595;SDS011;19946;49.306;11.350;2022-07-18T13:57:28;9.00;;;3.37;;
595;SDS011;19946;49.306;11.350;2022-07-18T14:00:28;9.67;;;3.53;;
595;SDS011;19946;49.306;11.350;2022-07-18T14:03:29;9.17;;;3.50;;
595;SDS011;19946;49.306;11.350;2022-07-18T14:06:29;16.70;;;4.57;;
595;SDS011;19946;49.306;11.350;2022-07-18T14:09:29;8.50;;;3.40;;
595;SDS011;19946;49.306;11.350;2022-07-18T14:12:30;28.30;;;6.27;;
595;SDS011;19946;49.306;11.350;2022-07-18T14:15:30;41.00;;;8.53;;
595;SDS011;19946;49.306;11.350;2022-07-18T14:18:31;24.03;;;5.97;;
595;SDS011;19946;49.306;11.350;2022-07-18T14:21:31;11.80;;;4.13;;
595;SDS011;19946;49.306;11.350;2022-07-18T14:24:32;6.53;;;3.70;;
595;SDS011;19946;49.306;11.350;2022-07-18T14:27:32;8.27;;;3.67;;
595;SDS011;19946;49.306;11.350;2022-07-18T14:30:34;23.37;;;5.70;;
595;SDS011;19946;49.306;11.350;2022-07-18T14:33:35;17.10;;;5.23;;
595;SDS011;19946;49.306;11.350;2022-07-18T14:36:36;6.90;;;3.73;;
595;SDS011;19946;49.306;11.350;2022-07-18T14:39:36;20.33;;;5.37;;
595;SDS011;19946;49.306;11.350;2022-07-18T14:42:38;10.67;;;4.57;;
595;SDS011;19946;49.306;11.350;2022-07-18T14:45:38;50.30;;;9.43;;
595;SDS011;19946;49.306;11.350;2022-07-18T14:48:39;14.07;;;4.63;;
595;SDS011;19946;49.306;11.350;2022-07-18T14:51:39;18.13;;;4.90;;
595;SDS011;19946;49.306;11.350;2022-07-18T14:54:39;11.60;;;4.20;;
595;SDS011;19946;49.306;11.350;2022-07-18T14:57:40;19.33;;;4.90;;
595;SDS011;19946;49.306;11.350;2022-07-18T15:00:40;14.57;;;4.27;;
595;SDS011;19946;49.306;11.350;2022-07-18T15:03:41;18.70;;;4.70;;
595;SDS011;19946;49.306;11.350;2022-07-18T15:06:41;7.90;;;3.43;;
595;SDS011;19946;49.306;11.350;2022-07-18T15:09:42;18.30;;;4.90;;
595;SDS011;19946;49.306;11.350;2022-07-18T15:12:42;13.40;;;4.30;;
595;SDS011;19946;49.306;11.350;2022-07-18T15:15:43;24.03;;;5.97;;
595;SDS011;19946;49.306;11.350;2022-07-18T15:18:44;13.57;;;4.93;;
595;SDS011;19946;49.306;11.350;2022-07-18T15:21:44;16.23;;;5.43;;
595;SDS011;19946;49.306;11.350;2022-07-18T15:24:45;9.33;;;4.03;;
595;SDS011;19946;49.306;11.350;2022-07-18T15:27:46;11.97;;;4.30;;
595;SDS011;19946;49.306;11.350;2022-07-18T15:30:46;11.37;;;4.13;;
595;SDS011;19946;49.306;11.350;2022-07-18T15:33:47;19.70;;;5.00;;
595;SDS011;19946;49.306;11.350;2022-07-18T15:36:48;18.47;;;5.30;;
595;SDS011;19946;49.306;11.350;2022-07-18T15:39:48;23.80;;;5.63;;
595;SDS011;19946;49.306;11.350;2022-07-18T15:42:49;25.03;;;5.43;;
595;SDS011;19946;49.306;11.350;2022-07-18T15:45:49;38.70;;;7.97;;
595;SDS011;19946;49.306;11.350;2022-07-18T15:48:49;12.47;;;4.47;;
595;SDS011;19946;49.306;11.350;2022-07-18T15:51:51;8.60;;;3.93;;
595;SDS011;19946;49.306;11.350;2022-07-18T15:54:51;11.37;;;4.30;;
595;SDS011;19946;49.306;11.350;2022-07-18T15:57:51;15.80;;;4.93;;
595;SDS011;19946;49.306;11.350;2022-07-18T16:00:52;9.93;;;4.30;;
595;SDS011;19946;49.306;11.350;2022-07-18T16:03:52;10.90;;;4.97;;
595;SDS011;19946;49.306;11.350;2022-07-18T16:06:53;21.60;;;6.40;;
595;SDS011;19946;49.306;11.350;2022-07-18T16:09:53;8.90;;;4.30;;
595;SDS011;19946;49.306;11.350;2022-07-18T16:12:53;9.77;;;4.53;;
595;SDS011;19946;49.306;11.350;2022-07-18T16:15:54;11.63;;;4.80;;
595;SDS011;19946;49.306;11.350;2022-07-18T16:18:56;5.87;;;3.73;;
595;SDS011;19946;49.306;11.350;2022-07-18T16:21:56;13.17;;;5.40;;
595;SDS011;19946;49.306;11.350;2022-07-18T16:24:58;10.77;;;5.23;;
595;SDS011;19946;49.306;11.350;2022-07-18T16:27:58;7.50;;;4.33;;
595;SDS011;19946;49.306;11.350;2022-07-18T16:30:59;7.93;;;3.83;;
595;SDS011;19946;49.306;11.350;2022-07-18T16:34:01;7.27;;;3.90;;
595;SDS011;19946;49.306;11.350;2022-07-18T16:37:02;12.80;;;4.80;;
595;SDS011;19946;49.306;11.350;2022-07-18T16:40:03;6.07;;;3.67;;
595;SDS011;19946;49.306;11.350;2022-07-18T16:43:04;11.60;;;4.67;;
595;SDS011;19946;49.306;11.350;2022-07-18T16:46:05;8.93;;;4.53;;
595;SDS011;19946;49.306;11.350;2022-07-18T16:49:05;8.60;;;4.17;;
595;SDS011;19946;49.306;11.350;2022-07-18T16:52:06;4.60;;;3.40;;
595;SDS011;19946;49.306;11.350;2022-07-18T16:55:07;7.93;;;4.00;;
595;SDS011;19946;49.306;11.350;2022-07-18T16:58:09;7.60;;;4.10;;
595;SDS011;19946;49.306;11.350;2022-07-18T17:01:09;9.93;;;4.30;;
595;SDS011;19946;49.306;11.350;2022-07-18T17:04:10;11.93;;;4.67;;
595;SDS011;19946;49.306;11.350;2022-07-18T17:07:10;10.27;;;4.50;;
595;SDS011;19946;49.306;11.350;2022-07-18T17:10:11;8.47;;;4.37;;
595;SDS011;19946;49.306;11.350;2022-07-18T17:13:12;7.67;;;4.00;;
595;SDS011;19946;49.306;11.350;2022-07-18T17:16:13;9.33;;;4.27;;
595;SDS011;19946;49.306;11.350;2022-07-18T17:19:14;8.37;;;4.20;;
595;SDS011;19946;49.306;11.350;2022-07-18T17:22:17;7.17;;;3.67;;
595;SDS011;19946;49.306;11.350;2022-07-18T17:25:18;9.27;;;4.00;;
595;SDS011;19946;49.306;11.350;2022-07-18T17:28:18;10.17;;;4.03;;
595;SDS011;19946;49.306;11.350;2022-07-18T17:31:19;8.60;;;4.10;;
595;SDS011;19946;49.306;11.350;2022-07-18T17:34:20;13.73;;;4.80;;
595;SDS011;19946;49.306;11.350;2022-07-18T17:37:21;8.40;;;4.20;;
595;SDS011;19946;49.306;11.350;2022-07-18T17:40:22;8.93;;;4.07;;
595;SDS011;19946;49.306;11.350;2022-07-18T17:43:23;6.70;;;3.80;;
595;SDS011;19946;49.306;11.350;2022-07-18T17:46:24;7.53;;;3.80;;
595;SDS011;19946;49.306;11.350;2022-07-18T17:49:28;4.50;;;3.50;;
595;SDS011;19946;49.306;11.350;2022-07-18T17:52:29;11.07;;;4.70;;
595;SDS011;19946;49.306;11.350;2022-07-18T17:55:31;18.60;;;5.87;;
595;SDS011;19946;49.306;11.350;2022-07-18T17:58:31;14.03;;;4.93;;
595;SDS011;19946;49.306;11.350;2022-07-18T18:01:32;8.07;;;4.07;;
595;SDS011;19946;49.306;11.350;2022-07-18T18:04:33;14.67;;;5.50;;
595;SDS011;19946;49.306;11.350;2022-07-18T18:07:33;14.93;;;5.37;;
595;SDS011;19946;49.306;11.350;2022-07-18T18:10:34;12.40;;;4.93;;
595;SDS011;19946;49.306;11.350;2022-07-18T18:13:35;12.03;;;4.67;;
595;SDS011;19946;49.306;11.350;2022-07-18T18:16:35;15.67;;;5.10;;
595;SDS011;19946;49.306;11.350;2022-07-18T18:19:36;10.13;;;4.53;;
595;SDS011;19946;49.306;11.350;2022-07-18T18:22:36;13.53;;;5.43;;
595;SDS011;19946;49.306;11.350;2022-07-18T18:25:36;13.77;;;5.20;;
595;SDS011;19946;49.306;11.350;2022-07-18T18:28:38;5.17;;;3.80;;
595;SDS011;19946;49.306;11.350;2022-07-18T18:31:38;7.20;;;3.80;;
595;SDS011;19946;49.306;11.350;2022-07-18T18:34:39;6.77;;;4.30;;
595;SDS011;19946;49.306;11.350;2022-07-18T18:37:39;5.97;;;4.17;;
595;SDS011;19946;49.306;11.350;2022-07-18T18:40:40;10.60;;;4.93;;
595;SDS011;19946;49.306;11.350;2022-07-18T18:43:40;9.77;;;5.10;;
595;SDS011;19946;49.306;11.350;2022-07-18T18:46:41;11.20;;;4.60;;
595;SDS011;19946;49.306;11.350;2022-07-18T18:49:41;6.27;;;4.37;;
595;SDS011;19946;49.306;11.350;2022-07-18T18:52:41;7.70;;;4.40;;
595;SDS011;19946;49.306;11.350;2022-07-18T18:55:43;7.43;;;5.03;;
595;SDS011;19946;49.306;11.350;2022-07-18T18:58:43;5.03;;;3.67;;
595;SDS011;19946;49.306;11.350;2022-07-18T19:01:44;3.80;;;3.37;;
595;SDS011;19946;49.306;11.350;2022-07-18T19:04:45;3.80;;;3.50;;
595;SDS011;19946;49.306;11.350;2022-07-18T19:07:46;4.10;;;3.30;;
595;SDS011;19946;49.306;11.350;2022-07-18T19:10:47;4.13;;;3.57;;
595;SDS011;19946;49.306;11.350;2022-07-18T19:13:47;3.83;;;3.50;;